Time;durP1;ratioP1;P1;durP2;ratioP2;P2;SDS_P1;SDS_P2;PMS_P1;PMS_P2;Temp;Humidity;BMP_temperature;BMP_pressure;BME280_temperature;BME280_humidity;BME280_pressure;Samples;Min_cycle;Max_cycle;Signal;HPM_P1;HPM_P2
2023/09/24 00:00:14;;;;;;;;;;;;;;;6.16;100.00;100425.00;5033302;28;19927;-83
2023/09/24 00:02:40;;;;;;;;;;;;;;;6.16;100.00;100429.41;5032130;28;19917;-84
2023/09/24 00:05:08;;;;;;;;;;;;;;;6.01;100.00;100427.84;5033557;28;20361;-88
2023/09/24 00:07:34;;;;;;;;;;;;;;;6.06;100.00;100438.31;5033629;28;19974;-82
2023/09/24 00:10:00;;;;;;;;;;;;;;;6.15;100.00;100444.31;5033328;28;20435;-82
2023/09/24 00:12:26;;;;;;;;;;;;;;;6.15;100.00;100446.94;5031865;28;20024;-82
2023/09/24 00:14:52;;;;;;;;;;;;;;;6.20;100.00;100446.03;5033190;28;20369;-83
2023/09/24 00:17:17;;;;;;;;;;;;;;;6.14;100.00;100444.34;5032206;28;19917;-89
2023/09/24 00:19:42;;;;;;;;;;;;;;;6.13;100.00;100445.25;5032084;28;20330;-84
2023/09/24 00:22:07;;;;;;;;;;;;;;;6.17;100.00;100442.56;5031722;28;19917;-86
2023/09/24 00:24:33;;;;;;;;;;;;;;;6.22;100.00;100436.31;5031420;28;20011;-87
2023/09/24 00:26:58;;;;;;;;;;;;;;;6.22;100.00;100433.69;5031729;28;19971;-89
2023/09/24 00:29:26;;;;;;;;;;;;;;;6.13;100.00;100448.72;5032751;28;20367;-94
2023/09/24 00:31:53;;;;;;;;;;;;;;;6.18;100.00;100443.41;5030881;28;19959;-92
2023/09/24 07:30:10;;;;;;;;;;;;;;;5.12;100.00;100697.72;5418346;23;20286;-86
2023/09/24 07:32:37;;;;;;;;;;;;;;;5.22;100.00;100685.44;5034376;28;19921;-88
2023/09/24 07:35:02;;;;;;;;;;;;;;;5.23;100.00;100692.41;5032979;28;19967;-85
2023/09/24 07:37:27;;;;;;;;;;;;;;;5.18;100.00;100699.44;5032951;28;20345;-85
2023/09/24 07:39:53;;;;;;;;;;;;;;;5.18;100.00;100700.31;5032845;28;20399;-84
2023/09/24 07:42:18;;;;;;;;;;;;;;;5.16;100.00;100707.34;5032924;28;19967;-85
2023/09/24 07:44:43;;;;;;;;;;;;;;;5.17;100.00;100702.94;5033160;28;20248;-85
2023/09/24 07:47:09;;;;;;;;;;;;;;;5.14;100.00;100710.84;5033917;28;19927;-85
2023/09/24 07:49:34;;;;;;;;;;;;;;;5.17;100.00;100709.09;5034305;28;19918;-85
2023/09/24 07:51:59;;;;;;;;;;;;;;;5.20;100.00;100703.84;5032542;28;19917;-85
2023/09/24 07:54:27;;;;;;;;;;;;;;;5.20;100.00;100703.84;5032677;28;20052;-85
2023/09/24 07:56:53;;;;;;;;;;;;;;;5.31;100.00;100700.25;5033694;28;20284;-84
2023/09/24 07:59:20;;;;;;;;;;;;;;;5.24;100.00;100700.28;5031906;28;20440;-85
2023/09/24 08:01:46;;;;;;;;;;;;;;;5.30;100.00;100714.25;5033954;28;20261;-85
2023/09/24 08:04:12;;;;;;;;;;;;;;;5.26;100.00;100706.41;5049110;28;19924;-84
2023/09/24 08:06:37;;;;;;;;;;;;;;;5.24;100.00;100705.53;5032532;28;19963;-84
2023/09/24 08:09:05;;;;;;;;;;;;;;;5.31;100.00;100703.75;5032019;28;19960;-84
2023/09/24 08:11:30;;;;;;;;;;;;;;;5.21;100.00;100705.56;5032180;28;19928;-85
2023/09/24 08:13:56;;;;;;;;;;;;;;;5.22;100.00;100707.31;5032365;28;20353;-85
2023/09/24 08:16:21;;;;;;;;;;;;;;;5.25;100.00;100699.41;5032455;28;19960;-84
2023/09/24 08:18:48;;;;;;;;;;;;;;;5.23;100.00;100703.81;5032360;28;20019;-84
2023/09/24 08:21:14;;;;;;;;;;;;;;;5.18;100.00;100704.72;5032126;28;19921;-86
2023/09/24 08:23:39;;;;;;;;;;;;;;;5.14;100.00;100702.97;5032179;28;20257;-85
2023/09/24 08:26:04;;;;;;;;;;;;;;;5.30;100.00;100698.50;5033290;28;20356;-84
2023/09/24 08:28:29;;;;;;;;;;;;;;;5.26;100.00;100700.28;5032834;28;19923;-86
2023/09/24 08:30:55;;;;;;;;;;;;;;;5.27;100.00;100697.63;5032420;28;19944;-85
2023/09/24 08:33:20;;;;;;;;;;;;;;;5.26;100.00;100693.28;5033199;28;20288;-85
2023/09/24 08:35:45;;;;;;;;;;;;;;;5.32;100.00;100702.00;5033172;28;19961;-85
2023/09/24 08:38:13;;;;;;;;;;;;;;;5.33;100.00;100709.88;5031643;28;19917;-85
2023/09/24 08:40:39;;;;;;;;;;;;;;;5.32;100.00;100704.63;5031154;28;19999;-85
2023/09/24 08:43:05;;;;;;;;;;;;;;;5.36;100.00;100708.97;5032834;28;19913;-84
2023/09/24 08:45:31;;;;;;;;;;;;;;;5.37;100.00;100706.31;5031705;28;19928;-84
2023/09/24 08:47:58;;;;;;;;;;;;;;;5.42;100.00;100708.94;5031570;28;19913;-85
2023/09/24 08:53:28;;;;;;;;;;;;;;;5.40;100.00;100705.44;5032715;28;19987;-84
2023/09/24 08:55:54;;;;;;;;;;;;;;;5.32;100.00;100694.13;5032713;28;19971;-85
2023/09/24 08:58:19;;;;;;;;;;;;;;;5.34;100.00;100692.34;5033151;28;20031;-84
2023/09/24 09:00:44;;;;;;;;;;;;;;;5.38;100.00;100694.94;5031348;28;19922;-86
2023/09/24 09:03:10;;;;;;;;;;;;;;;5.44;100.00;100694.91;5031375;28;19928;-85
2023/09/24 09:05:38;;;;;;;;;;;;;;;5.40;100.00;100694.94;5032528;28;19917;-85
2023/09/24 09:08:04;;;;;;;;;;;;;;;5.36;100.00;100686.19;5031237;28;19925;-85
2023/09/24 09:10:33;;;;;;;;;;;;;;;5.40;100.00;100681.78;5031602;28;19925;-85
2023/09/24 09:13:01;;;;;;;;;;;;;;;5.32;100.00;100668.69;5032750;28;19917;-85
2023/09/24 09:15:26;;;;;;;;;;;;;;;5.39;100.00;100672.16;5029802;28;19936;-85
2023/09/24 12:45:01;;;;;;;;;;;;;;;5.67;100.00;100456.34;5340016;23;19926;-81
2023/09/24 12:47:28;;;;;;;;;;;;;;;5.73;100.00;100464.16;5020546;28;19925;-81
2023/09/24 12:49:57;;;;;;;;;;;;;;;5.79;100.00;100461.41;5022961;28;20411;-81
2023/09/24 12:52:23;;;;;;;;;;;;;;;5.81;100.00;100457.88;5021654;28;20288;-81
2023/09/24 12:54:49;;;;;;;;;;;;;;;5.85;100.00;100461.34;5021518;28;19975;-81
2023/09/24 12:57:14;;;;;;;;;;;;;;;5.72;100.00;100458.00;5022251;28;19972;-81
2023/09/24 12:59:40;;;;;;;;;;;;;;;5.73;100.00;100458.88;5021526;28;20364;-83
2023/09/24 13:02:05;;;;;;;;;;;;;;;5.80;100.00;100450.88;5021970;28;20486;-81
2023/09/24 13:04:33;;;;;;;;;;;;;;;5.86;100.00;100455.22;5021880;28;20443;-82
2023/09/24 13:06:58;;;;;;;;;;;;;;;5.80;100.00;100453.50;5020477;28;19969;-85
2023/09/24 13:09:23;;;;;;;;;;;;;;;5.74;100.00;100448.31;5022226;28;20414;-81
2023/09/24 13:11:49;;;;;;;;;;;;;;;5.75;100.00;100436.94;5021786;28;19925;-83
2023/09/24 13:14:14;;;;;;;;;;;;;;;5.80;100.00;100443.00;5020347;28;19928;-82
2023/09/24 13:16:44;;;;;;;;;;;;;;;5.85;100.00;100450.81;5022344;28;20367;-81
2023/09/24 13:19:11;;;;;;;;;;;;;;;5.87;100.00;100449.06;5020550;28;19925;-82
2023/09/24 13:21:37;;;;;;;;;;;;;;;5.89;100.00;100447.28;5020464;28;19968;-85
2023/09/24 13:24:02;;;;;;;;;;;;;;;5.92;100.00;100447.25;5020330;28;19925;-81
2023/09/24 13:26:27;;;;;;;;;;;;;;;5.84;100.00;100443.84;5019562;28;19917;-81
2023/09/24 13:28:52;;;;;;;;;;;;;;;5.85;100.00;100432.41;5017114;28;19927;-81
2023/09/24 13:31:18;;;;;;;;;;;;;;;5.79;100.00;100424.59;5022499;28;20041;-82
2023/09/24 13:33:43;;;;;;;;;;;;;;;5.86;100.00;100426.28;5020544;28;19948;-82
2023/09/24 13:36:10;;;;;;;;;;;;;;;5.92;100.00;100428.81;5021251;28;20279;-82
2023/09/24 13:38:35;;;;;;;;;;;;;;;5.87;100.00;100429.75;5021965;28;19921;-81
2023/09/24 13:41:01;;;;;;;;;;;;;;;5.82;100.00;100429.81;5018967;28;19921;-82
2023/09/24 13:43:26;;;;;;;;;;;;;;;5.82;100.00;100425.44;5019551;28;19918;-82
2023/09/24 13:45:52;;;;;;;;;;;;;;;5.89;100.00;100420.09;5019228;28;19978;-82
2023/09/24 13:48:17;;;;;;;;;;;;;;;5.81;100.00;100415.81;5020671;28;19917;-82
2023/09/24 13:50:49;;;;;;;;;;;;;;;5.91;100.00;100418.31;5019886;28;19925;-80
2023/09/24 13:53:15;;;;;;;;;;;;;;;5.92;100.00;100415.69;5020955;28;19918;-81
2023/09/24 13:55:42;;;;;;;;;;;;;;;5.88;100.00;100413.09;5015975;28;19917;-84
2023/09/24 13:58:07;;;;;;;;;;;;;;;5.90;100.00;100417.44;5022051;28;20382;-81
2023/09/24 14:00:32;;;;;;;;;;;;;;;5.95;100.00;100410.38;5027364;28;20010;-82
2023/09/24 14:02:57;;;;;;;;;;;;;;;6.02;100.00;100398.03;5018470;28;20292;-80
2023/09/24 14:05:23;;;;;;;;;;;;;;;6.00;100.00;100405.94;5021426;28;20384;-81
2023/09/24 14:07:59;;;;;;;;;;;;;;;5.90;100.00;100409.53;5021787;28;19917;-82
2023/09/24 14:13:08;;;;;;;;;;;;;;;5.90;100.00;100398.16;5021936;28;20071;-83
2023/09/24 14:15:34;;;;;;;;;;;;;;;5.96;100.00;100401.59;5018830;28;20012;-81
2023/09/24 14:17:59;;;;;;;;;;;;;;;5.87;100.00;100401.72;5017862;28;19925;-82
2023/09/24 14:20:28;;;;;;;;;;;;;;;5.86;100.00;100399.97;5020766;28;19921;-83
2023/09/24 14:22:53;;;;;;;;;;;;;;;5.91;100.00;100400.78;5026242;28;19921;-82
2023/09/24 14:25:18;;;;;;;;;;;;;;;5.95;100.00;100393.69;5023720;28;19972;-88
2023/09/24 14:27:45;;;;;;;;;;;;;;;5.91;100.00;100399.91;5024736;28;19936;-82
2023/09/24 14:30:11;;;;;;;;;;;;;;;5.86;100.00;100389.44;5024343;28;19917;-83
2023/09/24 14:32:36;;;;;;;;;;;;;;;5.78;100.00;100392.19;5024029;28;19928;-83
2023/09/24 14:35:02;;;;;;;;;;;;;;;5.72;100.00;100387.00;5024359;28;20024;-82
2023/09/24 14:37:29;;;;;;;;;;;;;;;5.83;100.00;100392.13;5025550;28;19924;-83
2023/09/24 14:39:54;;;;;;;;;;;;;;;5.81;100.00;100397.41;5023465;28;20285;-81
2023/09/24 14:42:20;;;;;;;;;;;;;;;5.91;100.00;100398.13;5016650;28;19945;-82
2023/09/24 14:44:45;;;;;;;;;;;;;;;5.88;100.00;100397.31;5024518;28;19925;-82
2023/09/24 14:47:10;;;;;;;;;;;;;;;5.85;100.00;100392.97;5025336;28;19917;-81
2023/09/24 14:49:36;;;;;;;;;;;;;;;5.81;100.00;100397.41;5024957;28;19963;-82
2023/09/24 14:52:01;;;;;;;;;;;;;;;5.88;100.00;100378.91;5023947;28;19921;-82
2023/09/24 14:54:26;;;;;;;;;;;;;;;5.78;100.00;100384.28;5021479;28;19931;-82
2023/09/24 14:56:52;;;;;;;;;;;;;;;5.87;100.00;100379.78;5022159;28;20003;-81
2023/09/24 14:59:17;;;;;;;;;;;;;;;8.32;100.00;100377.81;5024185;28;19921;-82
2023/09/24 15:01:45;;;;;;;;;;;;;;;6.43;100.00;100374.59;5017162;28;19961;-82
2023/09/24 15:04:10;;;;;;;;;;;;;;;6.09;100.00;100383.00;5023737;28;19921;-85
2023/09/24 15:06:35;;;;;;;;;;;;;;;5.93;100.00;100374.44;5024106;28;20269;-83
2023/09/24 15:09:00;;;;;;;;;;;;;;;5.90;100.00;100382.38;5023861;28;19932;-84
2023/09/24 15:11:26;;;;;;;;;;;;;;;5.91;100.00;100373.59;5022881;28;20380;-83
2023/09/24 15:13:51;;;;;;;;;;;;;;;5.82;100.00;100371.97;5023640;28;19949;-83
2023/09/24 15:16:16;;;;;;;;;;;;;;;5.80;100.00;100368.50;5024358;28;19918;-83
2023/09/24 15:18:42;;;;;;;;;;;;;;;5.73;100.00;100362.47;5024662;28;20283;-82
2023/09/24 15:21:14;;;;;;;;;;;;;;;5.86;100.00;100363.16;5023163;28;19971;-82
2023/09/24 15:23:40;;;;;;;;;;;;;;;5.77;100.00;100363.28;5021945;28;19929;-83
2023/09/24 15:26:05;;;;;;;;;;;;;;;5.81;100.00;100371.09;5023078;28;19925;-83
2023/09/24 15:28:31;;;;;;;;;;;;;;;5.78;100.00;100365.88;5023188;28;19924;-83
2023/09/24 15:30:57;;;;;;;;;;;;;;;5.74;100.00;100366.81;5031163;28;19925;-80
2023/09/24 15:33:25;;;;;;;;;;;;;;;5.75;100.00;100375.59;5023056;28;19953;-82
2023/09/24 15:35:50;;;;;;;;;;;;;;;5.73;100.00;100361.59;5030646;28;19921;-82
2023/09/24 15:38:15;;;;;;;;;;;;;;;5.86;100.00;100365.78;5023205;28;20276;-82
2023/09/24 15:40:41;;;;;;;;;;;;;;;5.74;100.00;100365.94;5023179;28;20201;-84
2023/09/24 15:43:07;;;;;;;;;;;;;;;5.81;100.00;100362.34;5024215;28;19924;-82
2023/09/24 15:45:33;;;;;;;;;;;;;;;5.79;100.00;100361.47;5021367;28;20024;-83
2023/09/24 15:48:01;;;;;;;;;;;;;;;5.85;100.00;100369.28;5021755;28;20429;-82
2023/09/24 15:50:26;;;;;;;;;;;;;;;5.86;100.00;100357.88;5019277;28;20015;-82
2023/09/24 15:52:52;;;;;;;;;;;;;;;5.81;100.00;100357.94;5022703;28;20013;-83
2023/09/24 15:55:17;;;;;;;;;;;;;;;5.78;100.00;100362.41;5022753;28;19976;-82
2023/09/24 15:57:43;;;;;;;;;;;;;;;5.80;100.00;100361.47;5020276;28;19921;-82
2023/09/24 16:00:10;;;;;;;;;;;;;;;5.91;100.00;100363.09;5021559;28;20447;-82
2023/09/24 16:02:39;;;;;;;;;;;;;;;5.83;100.00;100360.56;5021191;28;19922;-82
2023/09/24 16:05:08;;;;;;;;;;;;;;;5.88;100.00;100353.47;5021102;28;19917;-82
2023/09/24 16:07:34;;;;;;;;;;;;;;;5.87;100.00;100351.75;5028891;28;19978;-84
2023/09/24 16:09:59;;;;;;;;;;;;;;;5.87;100.00;100351.75;5021211;28;20315;-84
2023/09/24 16:12:25;;;;;;;;;;;;;;;5.85;100.00;100340.34;5022563;28;19928;-82
2023/09/24 16:14:50;;;;;;;;;;;;;;;5.77;100.00;100345.72;5019307;28;20050;-83
2023/09/24 16:17:15;;;;;;;;;;;;;;;5.79;100.00;100353.59;5022018;28;19922;-82
2023/09/24 16:19:41;;;;;;;;;;;;;;;5.90;100.00;100358.72;5022616;28;19965;-83
2023/09/24 16:22:06;;;;;;;;;;;;;;;5.85;100.00;100350.03;5019912;28;19932;-83
2023/09/24 16:24:31;;;;;;;;;;;;;;;5.87;100.00;100348.22;5022722;28;19972;-82
2023/09/24 16:26:58;;;;;;;;;;;;;;;5.79;100.00;100341.34;5017698;28;19928;-83
2023/09/24 16:29:23;;;;;;;;;;;;;;;5.85;100.00;100345.63;5016916;28;19922;-83
2023/09/24 16:31:48;;;;;;;;;;;;;;;5.77;100.00;100343.09;5020823;28;19922;-83
2023/09/24 16:34:14;;;;;;;;;;;;;;;5.78;100.00;100350.09;5022637;28;20801;-82
2023/09/24 16:36:39;;;;;;;;;;;;;;;5.83;100.00;100352.66;5022242;28;19928;-82
2023/09/24 16:39:05;;;;;;;;;;;;;;;5.79;100.00;100350.97;5023532;28;19964;-81
2023/09/24 16:41:30;;;;;;;;;;;;;;;5.80;100.00;100353.56;5021708;28;19917;-83
2023/09/24 16:43:56;;;;;;;;;;;;;;;5.81;100.00;100355.31;5016906;28;19967;-83
2023/09/24 16:46:21;;;;;;;;;;;;;;;5.87;100.00;100349.13;5019534;28;19971;-83
2023/09/24 16:48:47;;;;;;;;;;;;;;;5.93;100.00;100350.78;5020078;28;19936;-82
2023/09/24 16:51:13;;;;;;;;;;;;;;;5.88;100.00;100349.97;5021097;28;20388;-81
2023/09/24 16:53:38;;;;;;;;;;;;;;;5.73;100.00;100344.03;5022579;28;19962;-84
2023/09/24 16:56:04;;;;;;;;;;;;;;;5.68;100.00;100345.00;5021479;28;20032;-81
2023/09/24 16:58:29;;;;;;;;;;;;;;;5.78;100.00;100339.59;5019842;28;19928;-82
2023/09/24 17:00:54;;;;;;;;;;;;;;;5.72;100.00;100336.19;5022843;28;20040;-83
2023/09/24 17:03:20;;;;;;;;;;;;;;;5.68;100.00;100343.25;5020355;28;20320;-82
2023/09/24 17:05:45;;;;;;;;;;;;;;;5.67;100.00;100341.50;5021157;28;19929;-83
2023/09/24 17:08:10;;;;;;;;;;;;;;;5.74;100.00;100337.00;5022820;28;20384;-84
2023/09/24 17:10:37;;;;;;;;;;;;;;;5.72;100.00;100346.69;5021918;28;19925;-83
2023/09/24 17:13:02;;;;;;;;;;;;;;;5.75;100.00;100342.25;5021126;28;19969;-84
2023/09/24 17:15:28;;;;;;;;;;;;;;;5.75;100.00;100341.41;5020754;28;19955;-82
2023/09/24 17:17:53;;;;;;;;;;;;;;;5.73;100.00;100346.69;5020173;28;19922;-82
2023/09/24 17:20:22;;;;;;;;;;;;;;;5.72;100.00;100339.66;5020035;28;20305;-82
2023/09/24 17:22:47;;;;;;;;;;;;;;;5.72;100.00;100338.81;5022818;28;19929;-82
2023/09/24 17:25:12;;;;;;;;;;;;;;;5.69;100.00;100338.84;5021022;28;19921;-83
2023/09/24 17:27:38;;;;;;;;;;;;;;;5.72;100.00;100339.66;5019904;28;19921;-83
2023/09/24 17:30:04;;;;;;;;;;;;;;;5.72;100.00;100336.19;5018490;28;19921;-83
2023/09/24 17:32:29;;;;;;;;;;;;;;;5.67;100.00;100336.25;5021497;28;20288;-83
2023/09/24 17:34:55;;;;;;;;;;;;;;;5.67;100.00;100345.91;5021169;28;19917;-82
2023/09/24 17:37:20;;;;;;;;;;;;;;;5.75;100.00;100344.03;5022490;28;19913;-83
2023/09/24 17:39:45;;;;;;;;;;;;;;;5.76;100.00;100345.75;5020231;28;19925;-81
2023/09/24 17:42:11;;;;;;;;;;;;;;;5.71;100.00;100350.22;5022150;28;19940;-81
2023/09/24 17:44:36;;;;;;;;;;;;;;;5.73;100.00;100364.22;5019711;28;19913;-83
2023/09/24 17:47:01;;;;;;;;;;;;;;;5.67;100.00;100364.31;5018778;28;20363;-82
2023/09/24 17:49:26;;;;;;;;;;;;;;;5.76;100.00;100372.03;5020113;28;20438;-82
2023/09/24 17:51:52;;;;;;;;;;;;;;;5.74;100.00;100369.44;5020729;28;19921;-81
2023/09/24 17:54:18;;;;;;;;;;;;;;;5.64;100.00;100379.22;5020684;28;19925;-82
2023/09/24 17:56:44;;;;;;;;;;;;;;;5.71;100.00;100389.66;5025576;28;19925;-81
2023/09/24 17:59:10;;;;;;;;;;;;;;;5.76;100.00;100385.19;5026962;28;19932;-82
2023/09/24 18:01:35;;;;;;;;;;;;;;;5.71;100.00;100392.28;5025449;28;20000;-81
2023/09/24 18:04:00;;;;;;;;;;;;;;;5.63;100.00;100390.63;5026912;28;20300;-85
2023/09/24 18:06:26;;;;;;;;;;;;;;;5.73;100.00;100394.00;5026777;28;19917;-82
2023/09/24 18:08:52;;;;;;;;;;;;;;;5.80;100.00;100395.66;5027938;28;19921;-82
2023/09/24 18:11:17;;;;;;;;;;;;;;;5.72;100.00;100397.53;5028742;28;19917;-82
2023/09/24 18:13:44;;;;;;;;;;;;;;;5.69;100.00;100392.28;5027173;28;19921;-84
2023/09/24 18:16:09;;;;;;;;;;;;;;;5.74;100.00;100401.00;5025942;28;19921;-82
2023/09/24 18:18:36;;;;;;;;;;;;;;;5.78;100.00;100401.84;5027209;28;20058;-82
2023/09/24 18:21:01;;;;;;;;;;;;;;;5.75;100.00;100401.88;5029180;28;19979;-81
2023/09/24 18:23:27;;;;;;;;;;;;;;;5.82;100.00;100400.88;5028139;28;20407;-84
2023/09/24 18:25:53;;;;;;;;;;;;;;;5.79;100.00;100399.19;5027131;28;19921;-81
2023/09/24 18:28:18;;;;;;;;;;;;;;;5.84;100.00;100399.13;5026975;28;19919;-82
2023/09/24 18:30:44;;;;;;;;;;;;;;;5.80;100.00;100394.78;5027082;28;19923;-84
2023/09/24 18:33:09;;;;;;;;;;;;;;;5.82;100.00;100399.16;5028042;28;19918;-82
2023/09/24 18:35:35;;;;;;;;;;;;;;;5.79;100.00;100395.66;5026775;28;19921;-83
2023/09/24 18:38:01;;;;;;;;;;;;;;;5.78;100.00;100392.19;5028626;28;19917;-82
2023/09/24 18:40:26;;;;;;;;;;;;;;;5.80;100.00;100389.53;5027074;28;20253;-82
2023/09/24 18:42:52;;;;;;;;;;;;;;;5.82;100.00;100390.38;5027970;28;19917;-82
2023/09/24 18:45:17;;;;;;;;;;;;;;;5.79;100.00;100399.19;5025294;28;20295;-82
2023/09/24 18:47:42;;;;;;;;;;;;;;;5.73;100.00;100399.28;5027359;28;20008;-82
2023/09/24 18:50:08;;;;;;;;;;;;;;;5.74;100.00;100394.88;5028133;28;19918;-81
2023/09/24 18:52:33;;;;;;;;;;;;;;;5.77;100.00;100400.09;5026576;28;19925;-82
2023/09/24 18:54:59;;;;;;;;;;;;;;;5.70;100.00;100398.44;5028269;28;20368;-82
2023/09/24 18:57:24;;;;;;;;;;;;;;;5.75;100.00;100401.88;5027178;28;19921;-82
2023/09/24 18:59:49;;;;;;;;;;;;;;;5.75;100.00;100407.13;5026473;28;20380;-86
2023/09/24 19:02:14;;;;;;;;;;;;;;;5.76;100.00;100414.13;5026791;28;19992;-85
2023/09/24 19:04:42;;;;;;;;;;;;;;;5.76;100.00;100403.59;5028048;28;20011;-82
2023/09/24 19:07:10;;;;;;;;;;;;;;;5.74;100.00;100405.38;5027777;28;20354;-86
2023/09/24 19:10:02;;;;;;;;;;;;;;;5.82;100.00;100403.53;5024473;28;19928;-92
2023/09/24 19:12:30;;;;;;;;;;;;;;;5.78;100.00;100405.34;5022719;28;19921;-83
2023/09/24 19:14:56;;;;;;;;;;;;;;;5.74;100.00;100408.88;5022802;28;20279;-82
2023/09/24 19:17:21;;;;;;;;;;;;;;;5.77;100.00;100405.34;5024889;28;19921;-82
2023/09/24 19:19:47;;;;;;;;;;;;;;;5.74;100.00;100408.00;5025244;28;19921;-88
2023/09/24 19:22:13;;;;;;;;;;;;;;;5.78;100.00;100407.09;5024800;28;19917;-82
2023/09/24 19:24:38;;;;;;;;;;;;;;;5.74;100.00;100395.72;5025242;28;20261;-82
2023/09/24 19:27:06;;;;;;;;;;;;;;;6.38;100.00;100406.25;5024503;28;19991;-80
2023/09/24 19:29:31;;;;;;;;;;;;;;;6.00;100.00;100398.06;5022179;28;19913;-81
2023/09/24 19:31:56;;;;;;;;;;;;;;;5.95;100.00;100404.22;5024856;28;19927;-81
2023/09/24 19:34:22;;;;;;;;;;;;;;;5.91;100.00;100403.41;5024509;28;19922;-81
2023/09/24 19:36:48;;;;;;;;;;;;;;;5.81;100.00;100399.16;5026153;28;19925;-81
2023/09/24 19:39:13;;;;;;;;;;;;;;;5.80;100.00;100402.69;5024433;28;19917;-82
2023/09/24 19:41:38;;;;;;;;;;;;;;;5.74;100.00;100406.25;5023327;28;19964;-82
2023/09/24 19:44:09;;;;;;;;;;;;;;;5.78;100.00;100407.09;5021690;28;19917;-93
2023/09/24 19:46:35;;;;;;;;;;;;;;;5.84;100.00;100404.38;5023056;28;20604;-81
2023/09/24 19:49:00;;;;;;;;;;;;;;;5.74;100.00;100406.25;5024492;28;19917;-82
2023/09/24 19:51:25;;;;;;;;;;;;;;;5.75;100.00;100401.88;5023858;28;19980;-81
2023/09/24 19:53:50;;;;;;;;;;;;;;;5.75;100.00;100407.13;5023979;28;19918;-82
2023/09/24 19:56:16;;;;;;;;;;;;;;;5.75;100.00;100401.88;5022857;28;19997;-82
2023/09/24 19:58:41;;;;;;;;;;;;;;;5.74;100.00;100400.13;5023185;28;19921;-82
2023/09/24 20:01:06;;;;;;;;;;;;;;;5.75;100.00;100402.75;5022591;28;19960;-82
2023/09/24 20:03:32;;;;;;;;;;;;;;;5.72;100.00;100388.78;5023661;28;20478;-82
2023/09/24 20:05:58;;;;;;;;;;;;;;;5.72;100.00;100394.88;5022715;28;19918;-81
2023/09/24 20:08:24;;;;;;;;;;;;;;;5.70;100.00;100396.69;5023665;28;19918;-81
2023/09/24 20:10:49;;;;;;;;;;;;;;;5.70;100.00;100399.31;5022651;28;20464;-82
2023/09/24 20:13:15;;;;;;;;;;;;;;;5.73;100.00;100398.41;5030217;28;20004;-81
2023/09/24 20:15:40;;;;;;;;;;;;;;;5.73;100.00;100396.63;5023391;28;19925;-82
2023/09/24 20:18:05;;;;;;;;;;;;;;;5.68;100.00;100402.84;5023788;28;20376;-81
2023/09/24 20:20:32;;;;;;;;;;;;;;;5.72;100.00;100397.53;5023218;28;19921;-81
2023/09/24 20:22:57;;;;;;;;;;;;;;;5.79;100.00;100398.31;5022334;28;19917;-81
2023/09/24 20:25:30;;;;;;;;;;;;;;;5.79;100.00;100393.03;5023598;28;19924;-81
2023/09/24 20:27:55;;;;;;;;;;;;;;;5.68;100.00;100395.84;5023337;28;19921;-82
2023/09/24 20:30:20;;;;;;;;;;;;;;;5.66;100.00;100392.34;5022676;28;20476;-81
2023/09/24 20:32:45;;;;;;;;;;;;;;;5.72;100.00;100386.13;5023276;28;19922;-82
2023/09/24 20:35:11;;;;;;;;;;;;;;;5.61;100.00;100394.16;5023107;28;19929;-81
2023/09/24 20:37:36;;;;;;;;;;;;;;;5.61;100.00;100391.53;5022015;28;19921;-81
2023/09/24 20:40:03;;;;;;;;;;;;;;;5.57;100.00;100393.34;5023632;28;20339;-81
2023/09/24 20:42:29;;;;;;;;;;;;;;;5.55;100.00;100395.13;5023653;28;19917;-81
2023/09/24 20:44:54;;;;;;;;;;;;;;;5.53;100.00;100382.88;5022047;28;19921;-81
2023/09/24 20:47:20;;;;;;;;;;;;;;;5.43;100.00;100379.50;5022810;28;19917;-82
2023/09/24 20:49:45;;;;;;;;;;;;;;;5.42;100.00;100388.25;5024019;28;19973;-82
2023/09/24 20:52:11;;;;;;;;;;;;;;;5.42;100.00;100389.13;5021976;28;19924;-81
2023/09/24 20:54:36;;;;;;;;;;;;;;;5.41;100.00;100378.66;5022877;28;19920;-89
2023/09/24 20:57:01;;;;;;;;;;;;;;;5.33;100.00;100386.63;5023448;28;19924;-81
2023/09/24 20:59:30;;;;;;;;;;;;;;;5.31;100.00;100388.38;5020322;28;19960;-81
2023/09/24 21:02:00;;;;;;;;;;;;;;;5.38;100.00;100381.31;5021536;28;19945;-81
2023/09/24 21:04:25;;;;;;;;;;;;;;;5.28;100.00;100384.06;5022302;28;19940;-82
2023/09/24 21:06:51;;;;;;;;;;;;;;;5.37;100.00;100379.56;5023254;28;19917;-81
2023/09/24 21:09:16;;;;;;;;;;;;;;;5.30;100.00;100373.53;5021583;28;19924;-82
2023/09/24 21:11:41;;;;;;;;;;;;;;;5.28;100.00;100364.75;5022488;28;19932;-81
2023/09/24 21:14:06;;;;;;;;;;;;;;;5.28;100.00;100362.13;5019991;28;20471;-82
2023/09/24 21:16:31;;;;;;;;;;;;;;;5.28;100.00;100362.13;5023062;28;20356;-82
2023/09/24 21:19:12;;;;;;;;;;;;;;;5.22;100.00;100360.47;5019493;28;20296;-91
2023/09/24 21:21:37;;;;;;;;;;;;;;;5.19;100.00;100355.25;5017639;28;19922;-85
2023/09/24 21:24:05;;;;;;;;;;;;;;;5.18;100.00;100352.63;5027445;28;19928;-85
2023/09/24 21:26:30;;;;;;;;;;;;;;;5.18;100.00;100347.38;5026626;28;19917;-86
2023/09/24 21:28:56;;;;;;;;;;;;;;;5.13;100.00;100350.06;5017451;28;19932;-84
2023/09/24 21:31:21;;;;;;;;;;;;;;;5.17;100.00;100349.16;5022992;28;20531;-81
2023/09/24 21:33:47;;;;;;;;;;;;;;;5.13;100.00;100344.81;5019554;28;19979;-86
2023/09/24 21:36:12;;;;;;;;;;;;;;;5.14;100.00;100343.94;5019233;28;20403;-88
2023/09/24 21:38:37;;;;;;;;;;;;;;;5.16;100.00;100338.66;5019549;28;19925;-83
2023/09/24 21:41:03;;;;;;;;;;;;;;;5.11;100.00;100340.47;5022528;28;19917;-81
2023/09/24 21:43:31;;;;;;;;;;;;;;;5.08;100.00;100347.47;5019286;28;19922;-81
2023/09/24 21:46:03;;;;;;;;;;;;;;;5.05;100.00;100347.50;5020406;28;20893;-82
2023/09/24 21:48:29;;;;;;;;;;;;;;;4.98;100.00;100345.88;5020947;28;19928;-80
2023/09/24 21:50:54;;;;;;;;;;;;;;;4.97;100.00;100343.25;5020429;28;19917;-81
2023/09/24 21:53:20;;;;;;;;;;;;;;;4.99;100.00;100346.72;5021927;28;19936;-81
2023/09/24 21:55:46;;;;;;;;;;;;;;;4.99;100.00;100346.72;5019409;28;19932;-80
2023/09/24 21:58:11;;;;;;;;;;;;;;;5.04;100.00;100340.53;5021950;28;20055;-81
2023/09/24 22:00:36;;;;;;;;;;;;;;;5.03;100.00;100330.06;5018995;28;19940;-81
2023/09/24 22:03:02;;;;;;;;;;;;;;;5.05;100.00;100333.53;5029077;28;19937;-81
2023/09/24 22:05:27;;;;;;;;;;;;;;;5.01;100.00;100335.31;5019277;28;20419;-80
2023/09/24 22:07:53;;;;;;;;;;;;;;;5.05;100.00;100334.38;5020692;28;19921;-81
2023/09/24 22:10:18;;;;;;;;;;;;;;;5.04;100.00;100343.16;5020779;28;19933;-81
2023/09/24 22:12:43;;;;;;;;;;;;;;;5.04;100.00;100350.16;5020335;28;19917;-81
2023/09/24 22:15:09;;;;;;;;;;;;;;;5.08;100.00;100354.50;5019476;28;19921;-82
2023/09/24 22:17:35;;;;;;;;;;;;;;;5.18;100.00;100353.50;5021903;28;19913;-81
2023/09/24 22:20:00;;;;;;;;;;;;;;;5.28;100.00;100349.00;5020858;28;19929;-81
2023/09/24 22:22:25;;;;;;;;;;;;;;;5.21;100.00;100347.34;5021785;28;19913;-80
2023/09/24 22:24:50;;;;;;;;;;;;;;;5.27;100.00;100347.28;5021834;28;20384;-81
2023/09/24 22:27:16;;;;;;;;;;;;;;;5.26;100.00;100356.94;5022041;28;19923;-81
2023/09/24 22:29:41;;;;;;;;;;;;;;;5.26;100.00;100345.53;5019476;28;19963;-81
2023/09/24 22:32:06;;;;;;;;;;;;;;;5.36;100.00;100348.91;5021780;28;19918;-82
2023/09/24 22:34:31;;;;;;;;;;;;;;;5.34;100.00;100350.69;5021572;28;19925;-81
2023/09/24 22:36:56;;;;;;;;;;;;;;;5.38;100.00;100350.66;5028946;28;19948;-81
2023/09/24 22:39:22;;;;;;;;;;;;;;;5.39;100.00;100346.25;5021928;28;20016;-80
2023/09/24 22:41:49;;;;;;;;;;;;;;;5.47;100.00;100349.63;5021937;28;20387;-81
2023/09/24 22:44:15;;;;;;;;;;;;;;;5.47;100.00;100347.00;5022486;28;19917;-81
2023/09/24 22:46:40;;;;;;;;;;;;;;;5.43;100.00;100342.69;5024990;28;19944;-81
2023/09/24 22:49:05;;;;;;;;;;;;;;;5.49;100.00;100341.72;5025195;28;19917;-81
2023/09/24 22:51:30;;;;;;;;;;;;;;;5.52;100.00;100345.22;5025581;28;19925;-81
2023/09/24 22:53:56;;;;;;;;;;;;;;;5.55;100.00;100342.56;5024215;28;19979;-81
2023/09/24 22:56:21;;;;;;;;;;;;;;;5.53;100.00;100344.31;5023627;28;19922;-81